createdAt,value
2022-08-07T00:00:31.741Z,11.49
2022-08-07T00:01:43.765Z,11.50
2022-08-07T00:02:40.471Z,11.48
2022-08-07T00:03:28.467Z,11.48
2022-08-07T00:04:24.504Z,11.44
2022-08-07T00:05:11.465Z,11.46
2022-08-07T00:05:58.195Z,11.44
2022-08-07T00:06:52.277Z,11.46
2022-08-07T00:07:40.338Z,11.45
2022-08-07T00:08:28.220Z,11.40
2022-08-07T00:09:16.609Z,11.42
2022-08-07T00:10:25.895Z,11.40
2022-08-07T00:11:13.321Z,11.40
2022-08-07T00:12:06.826Z,11.39
2022-08-07T00:13:01.442Z,11.39
2022-08-07T00:13:48.928Z,11.37
2022-08-07T00:14:37.896Z,11.37
2022-08-07T00:15:37.940Z,11.37
2022-08-07T00:16:33.110Z,11.37
2022-08-07T00:17:19.665Z,11.34
2022-08-07T00:18:08.971Z,11.30
2022-08-07T00:19:06.246Z,11.33
2022-08-07T00:20:08.591Z,11.35
2022-08-07T00:21:08.178Z,11.33
2022-08-07T00:22:12.106Z,11.30
2022-08-07T00:23:10.836Z,11.28
2022-08-07T00:23:58.911Z,11.27
2022-08-07T00:24:45.510Z,11.27
2022-08-07T00:25:37.518Z,11.26
2022-08-07T00:26:36.211Z,11.23
2022-08-07T00:27:52.440Z,11.20
2022-08-07T00:28:41.819Z,11.18
2022-08-07T00:29:32.749Z,11.14
2022-08-07T00:30:26.746Z,11.11
2022-08-07T00:31:17.781Z,11.15
2022-08-07T00:32:06.900Z,11.13
2022-08-07T00:32:54.046Z,11.09
2022-08-07T00:33:41.134Z,11.12
2022-08-07T00:34:28.617Z,11.10
2022-08-07T00:35:18.381Z,11.12
2022-08-07T00:36:10.135Z,11.09
2022-08-07T00:36:57.180Z,11.07
2022-08-07T00:37:47.990Z,11.06
2022-08-07T00:38:36.723Z,11.04
2022-08-07T00:39:25.614Z,11.03
2022-08-07T00:40:14.049Z,10.99
2022-08-07T00:41:01.273Z,11.03
2022-08-07T00:42:02.529Z,11.01
2022-08-07T00:42:52.904Z,11.00
2022-08-07T00:44:02.025Z,10.98
2022-08-07T00:44:46.143Z,10.98
2022-08-07T00:45:34.788Z,10.94
2022-08-07T00:46:22.449Z,10.94
2022-08-07T00:47:26.587Z,10.92
2022-08-07T00:48:16.020Z,11.32
2022-08-07T00:49:05.149Z,10.97
2022-08-07T00:50:20.040Z,10.93
2022-08-07T00:51:01.236Z,10.90
2022-08-07T00:51:57.370Z,10.84
2022-08-07T00:52:47.475Z,10.85
2022-08-07T00:53:38.970Z,10.87
2022-08-07T00:54:36.696Z,10.83
2022-08-07T00:56:02.346Z,10.79
2022-08-07T00:56:37.360Z,10.78
2022-08-07T00:57:26.103Z,10.79
2022-08-07T00:58:13.287Z,10.74
2022-08-07T00:59:00.567Z,10.76
2022-08-07T00:59:47.439Z,10.73
2022-08-07T01:00:35.230Z,10.72
2022-08-07T01:01:22.717Z,10.71
2022-08-07T01:02:28.838Z,10.70
2022-08-07T01:03:16.884Z,10.68
2022-08-07T01:04:07.661Z,10.67
2022-08-07T01:04:58.190Z,10.66
2022-08-07T01:05:53.465Z,10.62
2022-08-07T01:06:40.305Z,10.58
2022-08-07T01:07:29.525Z,10.62
2022-08-07T01:08:17.770Z,10.64
2022-08-07T01:09:06.711Z,10.62
2022-08-07T01:10:05.711Z,10.60
2022-08-07T01:10:57.038Z,10.62
2022-08-07T01:12:09.621Z,10.62
2022-08-07T01:12:55.884Z,10.62
2022-08-07T01:13:46.883Z,10.60
2022-08-07T01:14:45.043Z,10.62
2022-08-07T01:16:00.895Z,10.63
2022-08-07T01:16:43.001Z,10.60
2022-08-07T01:17:31.334Z,10.61
2022-08-07T01:18:18.252Z,10.59
2022-08-07T01:19:14.905Z,10.57
2022-08-07T01:20:10.201Z,10.53
2022-08-07T01:21:22.769Z,10.54
2022-08-07T01:22:22.655Z,10.54
2022-08-07T01:23:18.576Z,10.56
2022-08-07T01:24:22.485Z,10.49
2022-08-07T01:25:39.882Z,10.52
2022-08-07T01:26:20.755Z,10.49
2022-08-07T01:27:19.608Z,10.49
2022-08-07T01:28:07.513Z,10.50
2022-08-07T01:28:58.038Z,10.48
2022-08-07T01:29:46.936Z,10.44
2022-08-07T01:30:39.074Z,10.45
2022-08-07T01:31:29.920Z,10.43
2022-08-07T01:32:28.829Z,10.42
2022-08-07T01:33:17.320Z,10.41
2022-08-07T01:34:05.821Z,10.34
2022-08-07T01:34:57.344Z,10.28
2022-08-07T01:35:53.537Z,10.33
2022-08-07T01:36:45.612Z,10.32
2022-08-07T01:37:43.311Z,10.32
2022-08-07T01:38:32.704Z,10.30
2022-08-07T01:39:40.386Z,10.29
2022-08-07T01:41:01.952Z,10.23
2022-08-07T01:42:07.232Z,10.24
2022-08-07T01:42:59.104Z,10.27
2022-08-07T01:43:49.860Z,10.27
2022-08-07T01:44:37.970Z,10.23
2022-08-07T01:45:36.133Z,10.23
2022-08-07T01:46:26.720Z,10.21
2022-08-07T01:48:16.632Z,10.16
2022-08-07T01:48:30.349Z,10.19
2022-08-07T01:49:18.473Z,10.16
2022-08-07T01:50:09.447Z,10.18
2022-08-07T01:51:24.566Z,10.16
2022-08-07T01:52:12.143Z,10.17
2022-08-07T01:53:08.737Z,10.17
2022-08-07T01:54:09.938Z,10.16
2022-08-07T01:55:04.805Z,10.16
2022-08-07T01:56:03.307Z,10.15
2022-08-07T01:56:59.606Z,10.18
2022-08-07T01:58:01.142Z,10.08
2022-08-07T01:59:00.844Z,10.02
2022-08-07T02:00:00.856Z,10.11
2022-08-07T02:01:10.036Z,10.13
2022-08-07T02:03:19.418Z,10.14
2022-08-07T02:03:51.179Z,10.10
2022-08-07T02:04:56.454Z,10.09
2022-08-07T02:06:02.264Z,10.15
2022-08-07T02:06:59.484Z,10.07
2022-08-07T02:07:52.225Z,10.15
2022-08-07T02:08:49.162Z,10.06
2022-08-07T02:09:52.983Z,9.99
2022-08-07T02:10:54.897Z,9.99
2022-08-07T02:12:03.572Z,9.96
2022-08-07T02:12:59.740Z,9.88
2022-08-07T02:14:02.463Z,9.89
2022-08-07T02:14:55.094Z,9.86
2022-08-07T02:16:07.552Z,9.82
2022-08-07T02:16:59.354Z,9.95
2022-08-07T02:17:49.439Z,9.87
2022-08-07T02:18:46.787Z,9.83
2022-08-07T02:20:04.937Z,9.83
2022-08-07T02:20:48.546Z,9.81
2022-08-07T02:21:56.329Z,9.81
2022-08-07T02:22:47.193Z,9.78
2022-08-07T02:23:43.424Z,9.79
2022-08-07T02:24:32.746Z,9.75
2022-08-07T02:26:10.069Z,9.74
2022-08-07T02:26:36.391Z,9.75
2022-08-07T02:27:34.659Z,9.72
2022-08-07T02:28:27.244Z,9.73
2022-08-07T02:29:21.875Z,9.69
2022-08-07T02:30:09.731Z,9.68
2022-08-07T02:30:59.033Z,9.71
2022-08-07T02:31:48.802Z,9.65
2022-08-07T02:32:39.683Z,9.64
2022-08-07T02:34:01.658Z,9.63
2022-08-07T02:34:56.691Z,9.60
2022-08-07T02:36:28.989Z,9.59
2022-08-07T02:36:59.972Z,9.55
2022-08-07T02:37:49.600Z,9.54
2022-08-07T02:38:39.507Z,9.51
2022-08-07T02:39:42.922Z,9.53
2022-08-07T02:40:55.522Z,9.49
2022-08-07T02:41:50.779Z,9.48
2022-08-07T02:42:43.911Z,9.48
2022-08-07T02:43:34.903Z,9.48
2022-08-07T02:44:27.635Z,9.41
2022-08-07T02:46:01.649Z,9.46
2022-08-07T02:46:36.956Z,9.49
2022-08-07T02:47:24.717Z,9.53
2022-08-07T02:48:18.748Z,9.56
2022-08-07T02:49:07.555Z,9.54
2022-08-07T02:49:57.568Z,9.52
2022-08-07T02:50:54.000Z,9.53
2022-08-07T02:51:51.866Z,9.49
2022-08-07T02:52:50.099Z,9.53
2022-08-07T02:53:39.725Z,9.54
2022-08-07T02:54:34.237Z,9.53
2022-08-07T02:55:28.765Z,9.49
2022-08-07T02:56:38.511Z,9.43
2022-08-07T02:57:31.000Z,9.45
2022-08-07T02:58:27.347Z,9.46
2022-08-07T02:59:19.695Z,9.47
2022-08-07T03:00:11.952Z,9.44
2022-08-07T03:01:03.040Z,9.44
2022-08-07T03:01:52.011Z,9.51
2022-08-07T03:02:55.085Z,9.43
2022-08-07T03:03:49.867Z,9.43
2022-08-07T03:04:46.450Z,9.41
2022-08-07T03:05:37.202Z,9.42
2022-08-07T03:06:34.593Z,9.38
2022-08-07T03:08:05.290Z,9.42
2022-08-07T03:08:31.138Z,9.39
2022-08-07T03:09:41.825Z,9.34
2022-08-07T03:10:29.964Z,9.36
2022-08-07T03:11:20.169Z,9.36
2022-08-07T03:12:21.731Z,9.40
2022-08-07T03:13:10.421Z,9.45
2022-08-07T03:14:01.639Z,9.41
2022-08-07T03:14:52.517Z,9.36
2022-08-07T03:15:56.716Z,9.38
2022-08-07T03:16:47.149Z,9.28
2022-08-07T03:17:52.994Z,9.36
2022-08-07T03:18:41.275Z,9.31
2022-08-07T03:19:37.024Z,9.25
2022-08-07T03:20:26.282Z,9.30
2022-08-07T03:21:13.266Z,9.28
2022-08-07T03:22:07.704Z,9.25
2022-08-07T03:23:19.135Z,9.24
2022-08-07T03:24:17.761Z,9.23
2022-08-07T03:25:10.357Z,9.33
2022-08-07T03:26:03.911Z,9.22
2022-08-07T03:26:59.132Z,9.21
2022-08-07T03:28:08.797Z,9.22
2022-08-07T03:29:00.429Z,9.29
2022-08-07T03:29:52.848Z,9.28
2022-08-07T03:30:45.366Z,9.20
2022-08-07T03:31:42.759Z,9.18
2022-08-07T03:32:36.898Z,9.15
2022-08-07T03:33:26.051Z,9.19
2022-08-07T03:34:22.578Z,9.16
2022-08-07T03:35:17.795Z,9.09
2022-08-07T03:36:07.398Z,9.06
2022-08-07T03:36:57.321Z,9.06
2022-08-07T03:37:53.998Z,9.06
2022-08-07T03:38:45.007Z,9.07
2022-08-07T03:39:59.697Z,9.07
2022-08-07T03:40:44.280Z,9.02
2022-08-07T03:41:42.051Z,9.00
2022-08-07T03:42:37.060Z,9.09
2022-08-07T03:43:26.795Z,9.06
2022-08-07T03:44:31.712Z,9.03
2022-08-07T03:45:30.322Z,9.01
2022-08-07T03:46:23.360Z,8.96
2022-08-07T03:47:14.716Z,8.92
2022-08-07T03:48:10.105Z,8.91
2022-08-07T03:49:02.522Z,8.94
2022-08-07T03:49:52.483Z,8.91
2022-08-07T03:50:56.094Z,8.90
2022-08-07T03:52:00.975Z,8.89
2022-08-07T03:52:49.549Z,8.94
2022-08-07T03:54:05.455Z,8.97
2022-08-07T03:54:55.268Z,9.01
2022-08-07T03:55:58.187Z,8.99
2022-08-07T03:57:07.001Z,8.96
2022-08-07T03:58:08.793Z,8.97
2022-08-07T03:59:12.697Z,8.95
2022-08-07T04:00:04.599Z,8.95
2022-08-07T04:01:07.613Z,8.98
2022-08-07T04:01:59.926Z,8.99
2022-08-07T04:02:49.357Z,9.01
2022-08-07T04:03:55.334Z,9.00
2022-08-07T04:04:45.079Z,9.00
2022-08-07T04:05:40.996Z,9.03
2022-08-07T04:06:38.588Z,9.00
2022-08-07T04:07:35.971Z,9.03
2022-08-07T04:08:29.174Z,9.03
2022-08-07T04:09:19.249Z,9.00
2022-08-07T04:10:06.699Z,8.97
2022-08-07T04:12:21.274Z,8.97
2022-08-07T04:12:27.295Z,8.93
2022-08-07T04:13:17.549Z,8.91
2022-08-07T04:14:10.528Z,8.87
2022-08-07T04:15:16.560Z,8.89
2022-08-07T04:16:03.958Z,8.92
2022-08-07T04:16:58.543Z,8.92
2022-08-07T04:18:56.413Z,8.89
2022-08-07T04:18:59.695Z,8.89
2022-08-07T04:19:52.170Z,8.86
2022-08-07T04:20:54.321Z,8.84
2022-08-07T04:21:59.666Z,8.79
2022-08-07T04:23:01.143Z,8.81
2022-08-07T04:24:06.962Z,8.78
2022-08-07T04:24:56.252Z,8.82
2022-08-07T04:25:45.644Z,8.84
2022-08-07T04:26:38.914Z,8.85
2022-08-07T04:27:35.751Z,8.85
2022-08-07T04:28:29.199Z,8.86
2022-08-07T04:29:16.276Z,8.85
2022-08-07T04:30:04.530Z,8.84
2022-08-07T04:31:07.507Z,8.77
2022-08-07T04:32:02.945Z,8.81
2022-08-07T04:32:58.174Z,8.82
2022-08-07T04:33:55.051Z,8.79
2022-08-07T04:34:44.312Z,8.85
2022-08-07T04:35:35.122Z,8.87
2022-08-07T04:36:26.191Z,8.84
2022-08-07T04:37:15.395Z,8.87
2022-08-07T04:38:08.811Z,8.89
2022-08-07T04:38:59.139Z,8.88
2022-08-07T04:39:49.917Z,8.87
2022-08-07T04:40:43.868Z,8.89
2022-08-07T04:41:42.115Z,8.88
2022-08-07T04:42:36.905Z,8.92
2022-08-07T04:44:12.515Z,8.93
2022-08-07T04:45:02.741Z,8.93
2022-08-07T04:46:08.259Z,8.93
2022-08-07T04:48:01.633Z,8.94
2022-08-07T04:48:52.042Z,8.95
2022-08-07T04:50:04.495Z,8.98
2022-08-07T04:51:05.823Z,8.91
2022-08-07T04:52:04.979Z,8.94
2022-08-07T04:53:27.950Z,8.97
2022-08-07T04:54:51.684Z,8.96
2022-08-07T04:58:12.791Z,8.98
2022-08-07T04:58:13.257Z,8.96
2022-08-07T05:00:11.956Z,9.02
2022-08-07T05:01:30.304Z,9.06
2022-08-07T05:02:28.567Z,9.13
2022-08-07T05:04:00.316Z,9.10
2022-08-07T05:05:00.978Z,9.10
2022-08-07T05:05:58.714Z,9.15
2022-08-07T05:06:51.755Z,9.23
2022-08-07T05:07:55.727Z,9.19
2022-08-07T05:09:06.182Z,9.17
2022-08-07T05:10:04.739Z,9.19
2022-08-07T05:11:09.153Z,9.19
2022-08-07T05:12:02.434Z,9.19
2022-08-07T05:13:09.862Z,9.23
2022-08-07T05:14:55.215Z,9.24
2022-08-07T05:15:37.734Z,9.26
2022-08-07T05:16:31.343Z,9.28
2022-08-07T05:17:50.887Z,9.28
2022-08-07T05:18:39.795Z,9.31
2022-08-07T05:19:45.127Z,9.33
2022-08-07T05:20:46.412Z,9.38
2022-08-07T05:22:00.752Z,9.37
2022-08-07T05:22:49.198Z,9.36
2022-08-07T05:23:59.268Z,9.38
2022-08-07T05:24:51.182Z,9.38
2022-08-07T05:26:10.726Z,9.42
2022-08-07T05:26:55.357Z,9.42
2022-08-07T05:28:03.104Z,9.46
2022-08-07T05:28:58.043Z,9.66
2022-08-07T05:29:52.176Z,9.53
2022-08-07T05:30:47.134Z,9.53
2022-08-07T05:31:39.587Z,9.53
2022-08-07T05:32:32.356Z,9.65
2022-08-07T05:33:22.412Z,9.54
2022-08-07T05:34:13.226Z,9.57
2022-08-07T05:35:05.538Z,9.54
2022-08-07T05:35:53.338Z,9.61
2022-08-07T05:36:49.093Z,9.90
2022-08-07T05:38:08.838Z,9.74
2022-08-07T05:40:05.030Z,9.73
2022-08-07T05:40:18.796Z,9.68
2022-08-07T05:41:12.257Z,9.76
2022-08-07T05:42:07.454Z,9.77
2022-08-07T05:42:59.650Z,9.77
2022-08-07T05:44:07.931Z,9.80
2022-08-07T05:45:14.546Z,9.82
2022-08-07T05:46:06.228Z,9.83
2022-08-07T05:46:53.313Z,9.86
2022-08-07T05:48:02.352Z,9.89
2022-08-07T05:48:59.681Z,9.89
2022-08-07T05:49:52.221Z,9.95
2022-08-07T05:50:43.055Z,10.09
2022-08-07T05:51:33.383Z,10.05
2022-08-07T05:52:30.013Z,10.05
2022-08-07T05:54:13.952Z,10.05
2022-08-07T05:54:31.493Z,10.09
2022-08-07T05:56:01.856Z,10.12
2022-08-07T05:56:46.571Z,10.15
2022-08-07T05:57:37.741Z,10.16
2022-08-07T05:58:36.358Z,10.19
2022-08-07T05:59:27.363Z,10.23
2022-08-07T06:00:21.792Z,10.30
2022-08-07T06:01:19.895Z,10.28
2022-08-07T06:02:21.858Z,10.30
2022-08-07T06:03:20.161Z,10.32
2022-08-07T06:04:11.206Z,10.33
2022-08-07T06:05:15.476Z,10.39
2022-08-07T06:06:07.431Z,10.45
2022-08-07T06:07:03.472Z,10.46
2022-08-07T06:08:05.331Z,10.47
2022-08-07T06:08:59.009Z,10.53
2022-08-07T06:10:04.565Z,10.58
2022-08-07T06:10:54.872Z,10.61
2022-08-07T06:11:43.761Z,10.60
2022-08-07T06:12:33.029Z,10.64
2022-08-07T06:13:20.893Z,10.69
2022-08-07T06:14:28.960Z,10.73
2022-08-07T06:15:23.228Z,10.75
2022-08-07T06:16:33.452Z,10.82
2022-08-07T06:17:32.129Z,10.87
2022-08-07T06:18:28.017Z,10.91
2022-08-07T06:19:18.233Z,10.90
2022-08-07T06:20:31.782Z,10.94
2022-08-07T06:22:14.942Z,10.99
2022-08-07T06:22:42.248Z,11.00
2022-08-07T06:24:52.476Z,11.09
2022-08-07T06:25:02.970Z,11.15
2022-08-07T06:25:54.440Z,11.16
2022-08-07T06:26:45.277Z,11.20
2022-08-07T06:28:00.137Z,11.25
2022-08-07T06:28:55.434Z,11.35
2022-08-07T06:29:44.216Z,11.41
2022-08-07T06:30:37.415Z,11.46
2022-08-07T06:31:46.496Z,11.52
2022-08-07T06:32:38.429Z,11.55
2022-08-07T06:33:27.209Z,11.60
2022-08-07T06:34:16.282Z,11.61
2022-08-07T06:35:10.604Z,11.65
2022-08-07T06:36:12.360Z,11.69
2022-08-07T06:37:17.169Z,11.76
2022-08-07T06:38:08.218Z,11.81
2022-08-07T06:40:12.448Z,11.85
2022-08-07T06:40:13.563Z,11.90
2022-08-07T06:41:15.623Z,11.98
2022-08-07T06:42:33.164Z,12.15
2022-08-07T06:43:59.255Z,12.23
2022-08-07T06:44:56.716Z,12.28
2022-08-07T06:45:44.324Z,12.32
2022-08-07T06:46:35.364Z,12.33
2022-08-07T06:47:23.608Z,12.36
2022-08-07T06:48:14.440Z,12.41
2022-08-07T06:49:05.168Z,12.47
2022-08-07T06:49:58.059Z,12.45
2022-08-07T06:50:49.430Z,12.46
2022-08-07T06:51:49.333Z,12.45
2022-08-07T06:52:41.947Z,12.47
2022-08-07T06:54:12.232Z,12.70
2022-08-07T06:55:32.148Z,12.70
2022-08-07T06:56:01.080Z,12.72
2022-08-07T06:56:51.512Z,12.74
2022-08-07T06:57:49.933Z,12.76
2022-08-07T07:00:12.291Z,12.80
2022-08-07T07:00:13.059Z,12.90
2022-08-07T07:01:10.941Z,12.96
2022-08-07T07:02:03.145Z,12.98
2022-08-07T07:02:57.685Z,13.03
2022-08-07T07:03:49.903Z,13.04
2022-08-07T07:04:54.703Z,13.21
2022-08-07T07:06:03.543Z,13.26
2022-08-07T07:07:00.497Z,13.29
2022-08-07T07:07:59.244Z,13.42
2022-08-07T07:08:53.548Z,13.47
2022-08-07T07:09:49.002Z,13.51
2022-08-07T07:10:37.517Z,13.58
2022-08-07T07:12:08.643Z,13.58
2022-08-07T07:12:53.550Z,13.67
2022-08-07T07:13:58.104Z,13.68
2022-08-07T07:15:08.955Z,13.70
2022-08-07T07:16:22.019Z,13.73
2022-08-07T07:17:24.661Z,13.76
2022-08-07T07:18:48.145Z,13.81
2022-08-07T07:19:57.775Z,13.84
2022-08-07T07:20:55.812Z,13.92
2022-08-07T07:22:04.774Z,14.10
2022-08-07T07:24:08.377Z,14.10
2022-08-07T07:24:08.993Z,14.10
2022-08-07T07:25:14.048Z,14.15
2022-08-07T07:26:35.470Z,14.16
2022-08-07T07:27:23.845Z,14.28
2022-08-07T07:28:29.594Z,14.26
2022-08-07T07:29:55.988Z,14.47
2022-08-07T07:30:49.498Z,14.66
2022-08-07T07:31:44.681Z,14.83
2022-08-07T07:32:39.173Z,15.00
2022-08-07T07:33:30.541Z,15.08
2022-08-07T07:34:29.354Z,15.09
2022-08-07T07:35:18.849Z,15.07
2022-08-07T07:36:13.287Z,15.10
2022-08-07T07:37:14.777Z,15.06
2022-08-07T07:38:11.422Z,15.02
2022-08-07T07:39:00.373Z,15.12
2022-08-07T07:39:54.669Z,15.24
2022-08-07T07:40:42.751Z,15.32
2022-08-07T07:42:02.015Z,15.36
2022-08-07T07:42:51.010Z,15.39
2022-08-07T07:44:14.297Z,15.40
2022-08-07T07:44:55.311Z,15.41
2022-08-07T07:46:40.314Z,15.52
2022-08-07T07:47:00.275Z,15.58
2022-08-07T07:48:04.054Z,15.63
2022-08-07T07:48:59.986Z,15.64
2022-08-07T07:50:33.277Z,15.78
2022-08-07T07:51:07.956Z,15.98
2022-08-07T07:51:59.772Z,16.11
2022-08-07T07:52:50.238Z,16.25
2022-08-07T07:53:51.818Z,16.32
2022-08-07T07:54:50.750Z,16.42
2022-08-07T07:55:45.819Z,16.47
2022-08-07T07:56:44.457Z,16.53
2022-08-07T07:57:51.625Z,16.59
2022-08-07T07:58:42.194Z,16.69
2022-08-07T07:59:52.498Z,16.75
2022-08-07T08:00:39.732Z,16.71
2022-08-07T08:02:03.337Z,16.70
2022-08-07T08:03:01.144Z,16.58
2022-08-07T08:04:10.017Z,16.54
2022-08-07T08:04:57.885Z,16.64
2022-08-07T08:05:55.131Z,16.78
2022-08-07T08:06:52.060Z,16.85
2022-08-07T08:07:42.501Z,16.79
2022-08-07T08:08:49.045Z,16.90
2022-08-07T08:09:52.166Z,16.90
2022-08-07T08:10:48.157Z,16.98
2022-08-07T08:11:59.384Z,16.99
2022-08-07T08:12:58.964Z,17.01
2022-08-07T08:13:54.165Z,17.10
2022-08-07T08:14:43.914Z,17.14
2022-08-07T08:15:57.742Z,17.20
2022-08-07T08:16:50.238Z,17.29
2022-08-07T08:17:58.112Z,17.33
2022-08-07T08:18:50.251Z,17.39
2022-08-07T08:20:19.532Z,17.48
2022-08-07T08:20:48.936Z,17.46
2022-08-07T08:22:03.580Z,17.47
2022-08-07T08:23:12.860Z,17.56
2022-08-07T08:24:44.915Z,17.74
2022-08-07T08:25:54.554Z,17.96
2022-08-07T08:27:01.421Z,17.96
2022-08-07T08:28:01.917Z,18.03
2022-08-07T08:28:53.408Z,18.05
2022-08-07T08:29:54.195Z,17.93
2022-08-07T08:30:51.258Z,17.91
2022-08-07T08:32:16.843Z,17.93
2022-08-07T08:32:58.547Z,18.01
2022-08-07T08:33:49.460Z,17.96
2022-08-07T08:34:46.090Z,18.10
2022-08-07T08:35:39.515Z,18.07
2022-08-07T08:36:37.025Z,18.03
2022-08-07T08:38:00.650Z,18.01
2022-08-07T08:38:41.349Z,18.02
2022-08-07T08:39:39.867Z,17.96
2022-08-07T08:40:47.352Z,18.04
2022-08-07T08:41:57.064Z,18.13
2022-08-07T08:43:11.663Z,18.15
2022-08-07T08:44:29.698Z,18.18
2022-08-07T08:45:58.374Z,18.23
2022-08-07T08:46:59.388Z,18.42
2022-08-07T08:48:05.052Z,18.43
2022-08-07T08:48:58.190Z,18.42
2022-08-07T08:50:28.167Z,18.65
2022-08-07T08:51:49.508Z,18.76
2022-08-07T08:53:07.782Z,18.86
2022-08-07T08:54:20.327Z,18.79
2022-08-07T08:55:55.379Z,18.95
2022-08-07T08:56:49.940Z,18.98
2022-08-07T08:58:06.706Z,18.95
2022-08-07T08:59:16.457Z,18.97
2022-08-07T09:00:10.852Z,19.07
2022-08-07T09:01:18.506Z,19.05
2022-08-07T09:02:35.111Z,19.11
2022-08-07T09:03:48.031Z,19.14
2022-08-07T09:04:41.218Z,19.20
2022-08-07T09:05:52.101Z,19.35
2022-08-07T09:07:14.257Z,19.40
2022-08-07T09:08:24.355Z,19.43
2022-08-07T09:09:41.630Z,19.54
2022-08-07T09:10:44.250Z,19.66
2022-08-07T09:11:53.550Z,19.71
2022-08-07T09:13:10.662Z,19.76
2022-08-07T09:14:27.481Z,19.81
2022-08-07T09:16:20.206Z,20.05
2022-08-07T09:17:02.698Z,20.09
2022-08-07T09:18:23.531Z,19.99
2022-08-07T09:19:53.218Z,19.94
2022-08-07T09:21:58.141Z,19.95
2022-08-07T09:24:32.367Z,19.86
2022-08-07T09:24:33.304Z,19.86
2022-08-07T09:25:54.830Z,19.98
2022-08-07T09:27:02.066Z,19.98
2022-08-07T09:28:05.208Z,20.09
2022-08-07T09:30:05.813Z,20.15
2022-08-07T09:30:14.025Z,20.33
2022-08-07T09:31:10.857Z,20.30
2022-08-07T09:32:05.781Z,20.35
2022-08-07T09:33:41.246Z,20.34
2022-08-07T09:36:05.148Z,20.30
2022-08-07T09:36:52.513Z,20.32
2022-08-07T09:37:53.552Z,20.42
2022-08-07T09:38:53.759Z,20.52
2022-08-07T09:40:05.919Z,20.57
2022-08-07T09:41:36.490Z,20.51
2022-08-07T09:42:50.407Z,20.58
2022-08-07T09:44:06.394Z,20.55
2022-08-07T09:46:28.758Z,20.55
2022-08-07T09:47:42.689Z,20.48
2022-08-07T09:48:29.991Z,20.67
2022-08-07T09:50:00.491Z,20.70
2022-08-07T09:50:54.270Z,20.88
2022-08-07T09:52:34.286Z,20.99
2022-08-07T09:53:25.962Z,20.99
2022-08-07T09:54:40.161Z,20.96
2022-08-07T09:56:03.290Z,20.86
2022-08-07T09:56:56.689Z,20.83
2022-08-07T09:58:10.351Z,20.92
2022-08-07T09:59:07.820Z,21.06
2022-08-07T10:00:16.118Z,20.94
2022-08-07T10:01:51.244Z,21.02
2022-08-07T10:03:08.246Z,21.01
2022-08-07T10:04:52.913Z,21.16
2022-08-07T10:06:04.457Z,21.36
2022-08-07T10:07:31.776Z,21.32
2022-08-07T10:08:56.189Z,21.20
2022-08-07T10:10:20.966Z,21.30
2022-08-07T10:11:59.753Z,21.43
2022-08-07T10:12:54.762Z,21.48
2022-08-07T10:14:11.281Z,21.56
2022-08-07T10:15:15.400Z,21.56
2022-08-07T10:16:46.955Z,21.54
2022-08-07T10:18:08.469Z,21.52
2022-08-07T10:19:41.940Z,21.46
2022-08-07T10:20:31.290Z,21.47
2022-08-07T10:22:14.234Z,21.49
2022-08-07T10:23:03.093Z,21.69
2022-08-07T10:24:16.021Z,21.87
2022-08-07T10:25:42.926Z,21.84
2022-08-07T10:26:40.835Z,21.84
2022-08-07T10:27:47.134Z,21.87
2022-08-07T10:28:57.894Z,21.95
2022-08-07T10:30:15.082Z,21.87
2022-08-07T10:31:25.196Z,21.91
2022-08-07T10:32:52.911Z,21.97
2022-08-07T10:34:15.818Z,22.07
2022-08-07T10:35:20.524Z,22.01
2022-08-07T10:36:29.605Z,22.08
2022-08-07T10:38:00.596Z,22.12
2022-08-07T10:38:58.207Z,22.19
2022-08-07T10:40:05.273Z,22.38
2022-08-07T10:41:51.924Z,22.33
2022-08-07T10:42:57.260Z,22.43
2022-08-07T10:44:07.564Z,22.32
2022-08-07T10:45:07.123Z,22.24
2022-08-07T10:46:00.212Z,22.28
2022-08-07T10:47:11.963Z,22.25
2022-08-07T10:48:16.255Z,22.29
2022-08-07T10:49:24.548Z,22.31
2022-08-07T10:50:50.301Z,22.35
2022-08-07T10:52:02.045Z,22.32
2022-08-07T10:53:09.697Z,22.20
2022-08-07T10:54:12.182Z,22.17
2022-08-07T10:55:32.404Z,22.20
2022-08-07T10:56:53.789Z,22.26
2022-08-07T10:58:02.173Z,22.20
2022-08-07T10:59:13.638Z,22.21
2022-08-07T11:00:09.119Z,22.22
2022-08-07T11:01:23.642Z,22.33
2022-08-07T11:02:33.545Z,22.31
2022-08-07T11:03:52.842Z,22.52
2022-08-07T11:05:21.745Z,22.73
2022-08-07T11:06:26.816Z,22.85
2022-08-07T11:08:00.366Z,22.76
2022-08-07T11:09:02.152Z,22.64
2022-08-07T11:10:08.404Z,22.59
2022-08-07T11:11:08.590Z,22.54
2022-08-07T11:12:04.399Z,22.56
2022-08-07T11:13:16.765Z,22.57
2022-08-07T11:14:45.030Z,22.62
2022-08-07T11:15:50.066Z,22.65
2022-08-07T11:16:52.785Z,22.75
2022-08-07T11:17:49.354Z,22.74
2022-08-07T11:18:50.986Z,22.75
2022-08-07T11:19:48.406Z,22.86
2022-08-07T11:20:48.375Z,22.88
2022-08-07T11:22:02.182Z,22.96
2022-08-07T11:23:03.602Z,22.83
2022-08-07T11:24:10.495Z,23.00
2022-08-07T11:25:19.784Z,23.14
2022-08-07T11:26:48.072Z,23.17
2022-08-07T11:28:09.136Z,23.09
2022-08-07T11:29:42.924Z,23.09
2022-08-07T11:31:13.293Z,23.16
2022-08-07T11:32:46.170Z,23.19
2022-08-07T11:33:59.266Z,23.03
2022-08-07T11:34:46.916Z,23.14
2022-08-07T11:35:58.959Z,23.11
2022-08-07T11:37:05.018Z,22.97
2022-08-07T11:38:28.191Z,22.95
2022-08-07T11:39:21.580Z,23.12
2022-08-07T11:40:40.871Z,23.11
2022-08-07T11:42:03.035Z,23.21
2022-08-07T11:43:41.568Z,23.16
2022-08-07T11:44:58.621Z,23.28
2022-08-07T11:45:56.146Z,23.40
2022-08-07T11:47:13.680Z,23.49
2022-08-07T11:48:29.422Z,23.59
2022-08-07T11:50:18.690Z,23.48
2022-08-07T11:51:10.354Z,23.41
2022-08-07T11:52:35.509Z,23.25
2022-08-07T11:54:01.059Z,23.59
2022-08-07T11:54:55.589Z,23.49
2022-08-07T11:56:26.366Z,23.65
2022-08-07T11:57:59.938Z,23.45
2022-08-07T12:00:07.668Z,23.22
2022-08-07T12:00:40.549Z,23.23
2022-08-07T12:02:01.277Z,23.32
2022-08-07T12:03:00.082Z,23.25
2022-08-07T12:04:14.469Z,23.31
2022-08-07T12:05:28.654Z,23.44
2022-08-07T12:06:55.347Z,23.46
2022-08-07T12:08:06.969Z,23.42
2022-08-07T12:09:28.586Z,23.50
2022-08-07T12:10:27.625Z,23.62
2022-08-07T12:11:22.552Z,23.61
2022-08-07T12:12:18.775Z,23.49
2022-08-07T12:13:37.847Z,23.43
2022-08-07T12:14:37.365Z,23.47
2022-08-07T12:15:46.637Z,23.39
2022-08-07T12:16:48.214Z,23.38
2022-08-07T12:17:59.247Z,23.42
2022-08-07T12:19:21.609Z,23.46
2022-08-07T12:20:35.036Z,23.65
2022-08-07T12:22:35.838Z,23.80
2022-08-07T12:23:16.311Z,23.96
2022-08-07T12:24:37.719Z,24.10
2022-08-07T12:26:22.362Z,24.17
2022-08-07T12:27:16.192Z,24.28
2022-08-07T12:28:14.815Z,24.40
2022-08-07T12:29:17.337Z,24.53
2022-08-07T12:30:32.020Z,24.09
2022-08-07T12:31:52.565Z,24.14
2022-08-07T12:33:09.357Z,24.25
2022-08-07T12:34:12.957Z,24.22
2022-08-07T12:35:07.298Z,24.59
2022-08-07T12:35:57.708Z,24.26
2022-08-07T12:36:50.093Z,24.34
2022-08-07T12:38:09.436Z,24.17
2022-08-07T12:38:57.643Z,24.13
2022-08-07T12:39:51.538Z,24.15
2022-08-07T12:40:47.803Z,24.16
2022-08-07T12:41:49.067Z,24.10
2022-08-07T12:42:40.230Z,24.08
2022-08-07T12:44:03.502Z,24.18
2022-08-07T12:44:54.619Z,24.15
2022-08-07T12:45:55.061Z,24.08
2022-08-07T12:47:21.931Z,24.15
2022-08-07T12:48:51.800Z,24.14
2022-08-07T12:49:48.881Z,24.17
2022-08-07T12:50:54.496Z,24.21
2022-08-07T12:52:14.022Z,24.20
2022-08-07T12:53:18.565Z,24.10
2022-08-07T12:54:37.008Z,24.04
2022-08-07T12:55:41.458Z,23.98
2022-08-07T12:56:51.275Z,24.05
2022-08-07T12:58:00.738Z,24.09
2022-08-07T12:58:56.011Z,24.22
2022-08-07T12:59:55.296Z,24.29
2022-08-07T13:01:20.639Z,24.30
2022-08-07T13:02:33.322Z,24.66
2022-08-07T13:03:59.365Z,24.52
2022-08-07T13:05:01.892Z,24.61
2022-08-07T13:06:37.135Z,24.42
2022-08-07T13:08:14.486Z,24.44
2022-08-07T13:10:19.400Z,24.56
2022-08-07T13:11:27.037Z,24.45
2022-08-07T13:12:33.059Z,24.54
2022-08-07T13:13:46.703Z,24.52
2022-08-07T13:14:46.774Z,24.53
2022-08-07T13:15:59.325Z,24.46
2022-08-07T13:17:02.205Z,24.39
2022-08-07T13:18:03.371Z,24.43
2022-08-07T13:19:21.934Z,24.37
2022-08-07T13:20:44.623Z,24.25
2022-08-07T13:21:57.564Z,24.36
2022-08-07T13:24:00.661Z,24.58
2022-08-07T13:24:52.125Z,24.70
2022-08-07T13:25:50.984Z,24.67
2022-08-07T13:27:21.082Z,24.73
2022-08-07T13:28:18.542Z,24.72
2022-08-07T13:29:34.654Z,24.68
2022-08-07T13:30:40.078Z,24.67
2022-08-07T13:31:55.298Z,24.82
2022-08-07T13:33:05.390Z,24.76
2022-08-07T13:34:44.774Z,24.78
2022-08-07T13:35:59.858Z,24.67
2022-08-07T13:37:19.978Z,24.69